Twin Bridges, CA (95721)

1:19 PM PDT on September 30, 2014 (GMT -0700)
Lower Gardner Mountain | Change Station
CLOSE
Current Station
Personal Weather Station
Location: South Lake Tahoe, CA
Elevation: 6316 ft
Nearby Weather Stations

Elev 6316 ft 38.92 °N, 120.02 °W | Updated 13 minutes ago

Clear
Clear
64.4 °F
Feels Like 64.4 °F
N
0.0
Wind Variable Wind from SE

Today
High -- | Low -- °F
--% Chance of Precip.
Yesterday
High -- | Low -- °F
Precip. -- in
6:55 AM 6:44 PM
Waxing Crescent, 39% visible
Pressure 29.93 in
Visibility 10.0 miles
Clouds Clear
Dew Point 40 °F
Humidity 40%
Rainfall 0.00 in
Snow Depth 0 in , 0 in , 1 in
UV 8 out of 12
Pollen 5.60 out of 12
Air Quality Not available.
Flu Activity Not available.
METAR KTVL 301953Z AUTO 19008KT 10SM CLR 19/M03 A3006 RMK AO2 SLP135 T01891028

More Conditions Fewer Conditions

Pressure 29.93 in
Visibility 10.0 miles
Clouds Clear
Dew Point 40 °F
Humidity 40%
Rainfall 0.00 in
Snow Depth 0 in , 0 in , 1 in
UV 8 out of 12
Pollen 5.60 out of 12
Air Quality Not available.
Flu Activity Not available.
METAR KTVL 301953Z AUTO 19008KT 10SM CLR 19/M03 A3006 RMK AO2 SLP135 T01891028

More Conditions Fewer Conditions

10-Day Weather Forecast

Almanac

Astronomy

Sep. 30, 2014 Rise Set
Actual Time 6:55 AM PDT 6:44 PM PDT
Civil Twilight 6:28 AM PDT 7:10 PM PDT
Nautical Twilight 5:57 AM PDT 7:41 PM PDT
Astronomical Twilight 5:26 AM PDT 8:12 PM PDT
Moon 1:05 PM PDT 11:21 PM PDT
Length of Visible Light 12h 42m
Length of Day
11h 49m
Tomorrow will be 2m 31s shorter.
Waxing Crescent, 39% of the Moon is Illuminated
Today
Waxing Crescent
Oct 1
First Quarter
Oct 8
Full
Oct 15
Last Quarter
Oct 23
New

Today's Extremes

State Highs State Lows

Community

WunderPhotos

Upload Photos

1,757,738 photos uploaded!

Nearby

Snow Depth

Station Depth Elevation
Summit Meadow 0 in 9122 ft
Leavitt Lake 0 in 9400 ft
Rubicon #2 1 in 7500 ft
Blue Lakes 0 in 8000 ft
Heavenly Valley 1 in 8850 ft

Earthquake Activity

City Distance Mag. Time & Date
No recent earthquake activity has been reported nearby.
Minimum magnitude displayed is 2.5.

Coastal Water Temperatures

Place Temperature
No Stations Reporting

Nearby Weather Stations